Flight Track Log - Related Links

Times and Time Zones

All times are in EDT time to prevent confusion due to time zone crossing. See the SWA3636 flight status page for this flight to view local times or setup timezone preferences in your user account.

Time Position Orientation Groundspeed Altitude Reporting Facility
EDT Latitude Longitude Course Direction KTS MPH feet Rate Location/Type
Tue 12:03:45 AM 32.7531 -117.2347 320° Northwest 176 203 1,800  Level Los Angeles Center
Tue 12:04:47 AM 32.7869 -117.2900 306° West 204 235 4,500 2,829 Climbing Los Angeles Center
Tue 12:05:48 AM 32.8333 -117.3503 312° West 236 272 7,600 3,122 Climbing Los Angeles Center
Tue 12:06:50 AM 32.8825 -117.4194 310° West 264 304 10,900 2,878 Climbing Los Angeles Center
Tue 12:07:51 AM 32.9397 -117.5014 310° West 312 359 13,500 3,024 Climbing Los Angeles Center
Tue 12:08:53 AM 33.0167 -117.6058 311° West 344 396 17,100 3,171 Climbing Los Angeles Center
Tue 12:09:00 AM 33.1088 -117.7254 320° Northwest  Level FlightAware Approximate
Tue 12:09:54 AM 33.0842 -117.6989 311° West 364 419 20,000  Level Los Angeles Center
Tue 12:10:56 AM 33.1522 -117.7958 310° West 376 433 22,800 2,468 Climbing Los Angeles Center
Tue 12:11:58 AM 33.2233 -117.8975 310° West 396 456 25,100 2,146 Climbing Los Angeles Center
Tue 12:12:59 AM 33.2969 -118.0025 310° West 410 472 27,200 2,016 Climbing Los Angeles Center
Tue 12:14:00 AM 33.3728 -118.1106 310° West 422 486 29,200 2,244 Climbing Los Angeles Center
Tue 12:15:02 AM 33.4492 -118.2203 310° West 427 491 31,800 2,244 Climbing Los Angeles Center
Tue 12:16:03 AM 33.5222 -118.3253 310° West 412 474 33,800 1,805 Climbing Los Angeles Center
Tue 12:17:05 AM 33.5956 -118.4336 309° West 412 474 35,500 1,756 Climbing Los Angeles Center
Tue 12:18:06 AM 33.6858 -118.5644 310° West 416 479 37,400 1,220 Climbing Los Angeles Center
Tue 12:19:08 AM 33.7589 -118.6683 310° West 407 468 38,000 293 Climbing Los Angeles Center
Tue 12:20:09 AM 33.8292 -118.7703 310° West 398 458 38,000  Level Los Angeles Center
Tue 12:21:11 AM 33.8997 -118.8717 310° West 395 455 38,000  Level Los Angeles Center
Tue 12:22:12 AM 33.9558 -118.9542 309° West 398 458 38,000  Level Los Angeles Center
Tue 12:23:13 AM 34.0397 -119.0778 309° West 398 458 38,000  Level Los Angeles Center
Tue 12:24:15 AM 34.1089 -119.1808 309° West 398 458 38,000  Level Los Angeles Center
Tue 12:25:16 AM 34.1797 -119.2836 310° West 397 457 38,000  Level Los Angeles Center
Tue 12:26:18 AM 34.2497 -119.3881 309° West 400 460 38,000  Level Los Angeles Center
Tue 12:27:19 AM 34.3206 -119.4903 310° West 399 459 38,000  Level Los Angeles Center
Tue 12:28:20 AM 34.4028 -119.6158 308° West 398 458 38,000  Level Los Angeles Center
Tue 12:29:22 AM 34.4719 -119.7183 309° West 396 456 38,000  Level Los Angeles Center
Tue 12:30:23 AM 34.5483 -119.8108 315° West 390 449 38,000  Level Los Angeles Center
Tue 12:31:24 AM 34.6153 -119.8581 330° Northwest 400 460 38,000  Level Los Angeles Center
Tue 12:32:26 AM 34.7422 -119.9625 326° Northwest 395 455 38,000  Level Los Angeles Center
Tue 12:33:27 AM 34.8328 -120.0383 326° Northwest 395 455 38,000  Level Los Angeles Center
Tue 12:34:29 AM 34.9172 -120.1083 326° Northwest 393 452 38,000  Level Los Angeles Center
Tue 12:35:30 AM 35.0081 -120.1836 326° Northwest 396 456 38,000  Level Los Angeles Center
Tue 12:36:31 AM 35.0986 -120.2589 326° Northwest 398 458 38,000  Level Los Angeles Center
Tue 12:37:33 AM 35.1878 -120.3339 326° Northwest 393 452 38,000  Level Los Angeles Center
Tue 12:38:34 AM 35.2947 -120.4231 326° Northwest 393 452 38,000  Level Los Angeles Center
Tue 12:39:35 AM 35.3819 -120.5022 324° Northwest 396 456 38,000  Level Los Angeles Center
Tue 12:40:37 AM 35.4719 -120.5769 326° Northwest 392 451 38,000  Level Los Angeles Center
Tue 12:41:38 AM 35.5600 -120.6503 326° Northwest 387 445 38,000  Level Los Angeles Center
Tue 12:42:40 AM 35.6461 -120.7239 325° Northwest 386 444 38,000 -49 Level Los Angeles Center
Tue 12:43:41 AM 35.7344 -120.7986 326° Northwest 384 442 37,900 -1,426 Descending Los Angeles Center
Tue 12:44:42 AM 35.8394 -120.8875 326° Northwest 384 442 35,100 -2,410 Descending Los Angeles Center
Tue 12:45:43 AM 35.9253 -120.9619 325° Northwest 380 437 33,000 -2,015 Descending Los Angeles Center
Tue 12:46:56 AM 36.0242 -121.0469 325° Northwest 361 415 30,600 -1,925 Descending Oakland Center
Tue 12:47:57 AM 36.1044 -121.1147 326° Northwest 349 402 28,700 -1,869 Descending Oakland Center
Tue 12:48:58 AM 36.1800 -121.1814 325° Northwest 335 386 26,800 -1,820 Descending Oakland Center
Tue 12:49:59 AM 36.2547 -121.2461 325° Northwest 327 376 25,000 -1,770 Descending Oakland Center
Tue 12:51:00 AM 36.3269 -121.3100 325° Northwest 319 367 23,200 -1,770 Descending Oakland Center
Tue 12:52:01 AM 36.4022 -121.3708 327° Northwest 321 369 21,400 -1,574 Descending Oakland Center
Tue 12:53:02 AM 36.4708 -121.4342 323° Northwest 307 353 20,000 -1,672 Descending Oakland Center
Tue 12:54:03 AM 36.5372 -121.4914 325° Northwest 294 338 18,000 -2,016 Descending Oakland Center
Tue 12:55:04 AM 36.6061 -121.5550 323° Northwest 305 351 15,900 -1,770 Descending Oakland Center
Tue 12:56:05 AM 36.6778 -121.6075 330° Northwest 299 344 14,400 -1,475 Descending Oakland Center
Tue 12:57:06 AM 36.7786 -121.5928 North 297 342 12,900 -1,426 Descending Oakland Center
Tue 12:58:07 AM 36.8506 -121.5694 15° North 286 329 11,500 -1,180 Descending Oakland Center
Tue 12:59:08 AM 36.9208 -121.5414 18° North 276 318 10,500 -984 Descending Oakland Center
Tue 01:00:09 AM 36.9853 -121.5603 347° North 242 278 9,500 -984 Descending Oakland Center
Tue 01:01:10 AM 37.0478 -121.5817 345° North 236 272 8,500 -1,041 Descending Oakland Center
Tue 01:02:10 AM 37.0953 -121.6375 317° Northwest 225 259 7,400 -793 Descending Oakland Center
Tue 01:03:11 AM 37.1389 -121.6867 318° Northwest 212 244 6,900 -541 Descending Oakland Center
Tue 01:04:12 AM 37.1742 -121.7256 319° Northwest 174 200 6,300 -1,033 Descending Oakland Center
Tue 01:05:13 AM 37.2019 -121.7572 318° Northwest 156 180 4,800 -1,475 Descending Oakland Center
Tue 01:06:14 AM 37.2308 -121.7911 317° Northwest 148 170 3,300 -1,230 Descending Oakland Center
Tue 01:07:15 AM 37.2658 -121.8269 321° Northwest 140 161 2,300 -836 Descending Oakland Center
Tue 01:08:16 AM 37.2950 -121.8572 320° Northwest 137 158 1,600 -744 Descending Oakland Center
Tue 01:09:16 AM 37.3250 -121.8894 320° Northwest 139 160 800 -744 Descending Oakland Center
Tue 01:10:17 AM 37.3536 -121.9203 319° Northwest 138 159 100 -689 Descending Oakland Center
Tue 01:12:00 AM 37.3500 -121.9167 North  Level FlightAware Approximate

Login

Don't have an account? Register now (free) for customized features, flight alerts, and more!